Time;durP1;ratioP1;P1;durP2;ratioP2;P2;SDS_P1;SDS_P2;PMS_P1;PMS_P2;Temp;Humidity;BMP_temperature;BMP_pressure;BME280_temperature;BME280_humidity;BME280_pressure;Samples;Min_cycle;Max_cycle;Signal;HPM_P1;HPM_P2
2022/09/14 00:01:33;;;;;;;;;;;;;;;14.43;100.00;98136.65;105221;1270;62627;-72
2022/09/14 00:04:19;;;;;;;;;;;;;;;14.41;100.00;98137.60;105124;1270;62205;-70
2022/09/14 00:06:46;;;;;;;;;;;;;;;14.38;100.00;98135.65;105166;1270;70657;-70
2022/09/14 00:09:14;;;;;;;;;;;;;;;14.37;100.00;98129.79;105124;1270;62200;-69
2022/09/14 00:11:40;;;;;;;;;;;;;;;14.34;100.00;98128.98;105166;1270;62079;-69
2022/09/14 00:14:07;;;;;;;;;;;;;;;14.32;100.00;98128.13;105193;1270;62142;-70
2022/09/14 00:16:34;;;;;;;;;;;;;;;14.29;100.00;98126.95;105201;1270;62085;-70
2022/09/14 00:19:05;;;;;;;;;;;;;;;14.25;100.00;98122.98;105177;1270;69363;-70
2022/09/14 00:21:36;;;;;;;;;;;;;;;14.23;100.00;98123.36;105196;1270;72767;-69
2022/09/14 00:24:03;;;;;;;;;;;;;;;14.21;100.00;98128.26;105220;1268;62105;-71
2022/09/14 00:26:29;;;;;;;;;;;;;;;14.18;100.00;98124.95;105279;1270;62076;-71
2022/09/14 00:28:57;;;;;;;;;;;;;;;14.15;100.00;98123.05;105196;1269;62204;-71
2022/09/14 00:31:24;;;;;;;;;;;;;;;14.11;100.00;98120.24;105198;1270;69643;-70
2022/09/14 00:33:51;;;;;;;;;;;;;;;14.07;100.00;98117.10;105193;1270;74508;-70
2022/09/14 00:36:18;;;;;;;;;;;;;;;14.00;100.00;98116.81;105281;1270;62075;-71
2022/09/14 00:38:46;;;;;;;;;;;;;;;13.94;100.00;98116.13;104951;1270;62179;-71
2022/09/14 00:41:16;;;;;;;;;;;;;;;13.89;100.00;98111.95;105184;1270;77137;-70
2022/09/14 00:43:51;;;;;;;;;;;;;;;13.85;100.00;98112.02;105236;1270;69397;-71
2022/09/14 00:46:17;;;;;;;;;;;;;;;13.81;100.00;98111.50;105183;1270;74378;-71
2022/09/14 00:48:43;;;;;;;;;;;;;;;13.77;100.00;98111.11;105214;1270;62132;-70
2022/09/14 00:51:09;;;;;;;;;;;;;;;13.75;100.00;98113.87;105161;1270;62079;-70
2022/09/14 00:53:35;;;;;;;;;;;;;;;13.73;100.00;98112.09;105192;1270;62177;-71
2022/09/14 00:56:00;;;;;;;;;;;;;;;13.71;100.00;98111.88;105168;1270;62515;-71
2022/09/14 00:58:27;;;;;;;;;;;;;;;13.72;100.00;98109.52;105201;1270;62190;-69
2022/09/14 01:00:53;;;;;;;;;;;;;;;13.73;100.00;98109.05;105029;1271;62328;-71
2022/09/14 01:03:20;;;;;;;;;;;;;;;13.74;100.00;98106.80;105224;1270;62429;-72
2022/09/14 01:06:12;;;;;;;;;;;;;;;13.75;100.00;98105.66;105161;1270;62066;-70
2022/09/14 01:08:44;;;;;;;;;;;;;;;13.77;100.00;98106.35;105252;1270;70475;-71
2022/09/14 01:11:20;;;;;;;;;;;;;;;13.77;100.00;98107.75;105197;1270;73453;-70
2022/09/14 01:14:11;;;;;;;;;;;;;;;13.79;100.00;98106.02;105235;1270;62175;-70
2022/09/14 01:16:41;;;;;;;;;;;;;;;13.80;100.00;98107.48;105206;1269;61936;-70
2022/09/14 01:19:13;;;;;;;;;;;;;;;13.82;100.00;98102.59;105221;1270;77470;-70
2022/09/14 01:21:41;;;;;;;;;;;;;;;13.84;100.00;98104.77;105217;1270;69339;-70
2022/09/14 01:24:26;;;;;;;;;;;;;;;13.83;100.00;98102.30;105190;1270;74465;-69
2022/09/14 01:26:58;;;;;;;;;;;;;;;13.84;100.00;98102.95;105214;1270;62067;-71
2022/09/14 01:29:32;;;;;;;;;;;;;;;13.85;100.00;98103.09;105207;1270;62056;-70
2022/09/14 01:32:02;;;;;;;;;;;;;;;13.88;100.00;98102.67;105232;1270;77240;-69
2022/09/14 01:34:51;;;;;;;;;;;;;;;13.89;100.00;98101.83;105312;1270;69528;-70
2022/09/14 01:37:27;;;;;;;;;;;;;;;13.89;100.00;98096.46;104545;1278;74537;-70
2022/09/14 01:39:56;;;;;;;;;;;;;;;13.88;100.00;98091.17;104488;1278;62071;-71
2022/09/14 01:42:25;;;;;;;;;;;;;;;13.87;100.00;98089.69;104625;1278;62107;-70
2022/09/14 01:44:54;;;;;;;;;;;;;;;13.85;100.00;98085.79;104583;1278;78075;-70
2022/09/14 01:47:26;;;;;;;;;;;;;;;13.82;100.00;98083.40;104577;1277;69418;-70
2022/09/14 01:49:56;;;;;;;;;;;;;;;13.80;100.00;98079.13;104590;1277;73596;-70
2022/09/14 01:52:25;;;;;;;;;;;;;;;13.78;100.00;98078.00;104639;1277;62184;-70
2022/09/14 01:54:53;;;;;;;;;;;;;;;13.77;100.00;98070.96;104580;1278;62296;-70
2022/09/14 01:57:24;;;;;;;;;;;;;;;13.76;100.00;98071.97;104562;1277;76206;-70
2022/09/14 01:59:54;;;;;;;;;;;;;;;13.76;100.00;98067.31;104565;1277;69407;-70
2022/09/14 02:02:20;;;;;;;;;;;;;;;13.77;100.00;98067.03;104648;1277;73532;-67
2022/09/14 02:04:49;;;;;;;;;;;;;;;13.79;100.00;98062.40;104310;1277;62848;-66
2022/09/14 02:07:15;;;;;;;;;;;;;;;13.80;100.00;98064.04;104502;1277;62109;-71
2022/09/14 02:09:42;;;;;;;;;;;;;;;13.83;100.00;98064.69;104677;1278;62115;-71
2022/09/14 02:12:07;;;;;;;;;;;;;;;13.85;100.00;98068.82;104631;1277;62164;-71
2022/09/14 02:14:34;;;;;;;;;;;;;;;13.88;100.00;98071.06;104813;1270;62130;-70
2022/09/14 02:17:01;;;;;;;;;;;;;;;13.90;100.00;98069.42;105207;1270;62193;-70
2022/09/14 02:19:30;;;;;;;;;;;;;;;13.93;100.00;98070.02;105239;1270;62260;-70
2022/09/14 02:21:56;;;;;;;;;;;;;;;13.95;100.00;98065.14;105205;1270;77351;-70
2022/09/14 02:24:22;;;;;;;;;;;;;;;13.98;100.00;98063.10;105206;1270;62144;-70
2022/09/14 02:26:50;;;;;;;;;;;;;;;13.99;100.00;98061.52;105230;1270;62179;-70
2022/09/14 02:29:16;;;;;;;;;;;;;;;14.01;100.00;98061.54;105357;1270;62164;-71
2022/09/14 02:31:57;;;;;;;;;;;;;;;14.02;100.00;98058.27;105227;1270;62107;-70
2022/09/14 02:34:29;;;;;;;;;;;;;;;14.02;100.00;98053.98;105217;1270;76434;-71
2022/09/14 02:37:12;;;;;;;;;;;;;;;14.01;100.00;98052.26;105219;1270;70647;-71
2022/09/14 02:39:57;;;;;;;;;;;;;;;13.98;100.00;98048.98;105198;1270;73323;-71
2022/09/14 02:42:35;;;;;;;;;;;;;;;13.91;100.00;98045.88;105193;1270;62067;-71
2022/09/14 02:45:11;;;;;;;;;;;;;;;13.86;100.00;98045.16;105227;1270;62066;-71
2022/09/14 02:47:43;;;;;;;;;;;;;;;13.82;100.00;98043.67;104938;1270;75634;-71
2022/09/14 02:50:25;;;;;;;;;;;;;;;13.78;100.00;98036.59;105216;1270;69470;-70
2022/09/14 02:52:51;;;;;;;;;;;;;;;13.76;100.00;98035.79;104939;1270;73393;-70
2022/09/14 02:55:19;;;;;;;;;;;;;;;13.72;100.00;98028.27;105215;1270;62075;-70
2022/09/14 02:58:05;;;;;;;;;;;;;;;13.67;100.00;98026.25;105203;1270;61963;-70
2022/09/14 03:00:35;;;;;;;;;;;;;;;13.61;100.00;98030.90;105239;1270;76293;-70
2022/09/14 03:03:02;;;;;;;;;;;;;;;13.57;100.00;98031.11;105229;1270;69381;-70
2022/09/14 03:05:28;;;;;;;;;;;;;;;13.53;100.00;98025.83;105196;1270;74439;-70
2022/09/14 03:07:54;;;;;;;;;;;;;;;13.48;100.00;98028.77;105229;1270;62183;-70
2022/09/14 03:10:20;;;;;;;;;;;;;;;13.44;100.00;98031.33;105198;1270;62181;-70
2022/09/14 03:12:46;;;;;;;;;;;;;;;13.38;100.00;98031.16;105226;1270;62184;-71
2022/09/14 03:15:12;;;;;;;;;;;;;;;13.33;100.00;98035.11;105251;1270;62830;-71
2022/09/14 03:17:38;;;;;;;;;;;;;;;13.30;100.00;98036.02;105195;1270;62165;-71
2022/09/14 03:20:05;;;;;;;;;;;;;;;13.26;100.00;98035.61;105245;1270;62175;-70
2022/09/14 03:22:31;;;;;;;;;;;;;;;13.23;100.00;98035.88;105140;1270;62164;-70
2022/09/14 03:24:57;;;;;;;;;;;;;;;13.20;100.00;98037.94;105300;1270;62089;-70
2022/09/14 03:27:23;;;;;;;;;;;;;;;13.17;100.00;98040.16;105276;1270;62185;-70
2022/09/14 03:29:49;;;;;;;;;;;;;;;13.13;100.00;98038.00;105232;1270;62084;-70
2022/09/14 03:32:15;;;;;;;;;;;;;;;13.10;100.00;98032.63;105148;1270;62926;-71
2022/09/14 03:34:41;;;;;;;;;;;;;;;13.07;100.00;98033.67;105215;1270;62151;-70
2022/09/14 03:37:07;;;;;;;;;;;;;;;13.03;100.00;98026.66;105219;1270;62174;-70
2022/09/14 03:39:33;;;;;;;;;;;;;;;12.99;100.00;98023.68;105232;1270;62108;-70
2022/09/14 03:41:59;;;;;;;;;;;;;;;12.94;100.00;98022.64;105225;1270;62265;-70
2022/09/14 03:44:25;;;;;;;;;;;;;;;12.92;100.00;98018.42;105274;1270;62163;-70
2022/09/14 03:46:50;;;;;;;;;;;;;;;12.89;100.00;98019.75;105228;1270;70385;-70
2022/09/14 03:49:16;;;;;;;;;;;;;;;12.87;100.00;98017.46;105235;1270;62183;-70
2022/09/14 03:51:42;;;;;;;;;;;;;;;12.84;100.00;98014.36;105240;1270;62153;-70
2022/09/14 03:54:08;;;;;;;;;;;;;;;12.80;100.00;98015.27;105236;1270;62194;-70
2022/09/14 03:56:34;;;;;;;;;;;;;;;12.75;100.00;98018.37;105233;1270;62175;-71
2022/09/14 03:59:00;;;;;;;;;;;;;;;12.74;100.00;98014.53;105212;1270;62075;-70
2022/09/14 04:01:26;;;;;;;;;;;;;;;12.73;100.00;98014.77;105232;1270;62185;-70
2022/09/14 04:03:52;;;;;;;;;;;;;;;12.73;100.00;98019.03;105240;1270;62135;-70
2022/09/14 04:06:18;;;;;;;;;;;;;;;12.74;100.00;98021.14;105237;1270;62175;-70
2022/09/14 04:08:45;;;;;;;;;;;;;;;12.73;100.00;98018.33;105221;1270;62068;-71
2022/09/14 04:11:16;;;;;;;;;;;;;;;12.75;100.00;98018.56;105227;1270;62203;-71
2022/09/14 04:13:43;;;;;;;;;;;;;;;12.77;100.00;98018.59;105235;1270;62074;-71
2022/09/14 04:16:09;;;;;;;;;;;;;;;12.78;100.00;98014.70;105235;1270;62101;-71
2022/09/14 04:18:35;;;;;;;;;;;;;;;12.80;100.00;98013.88;105244;1270;62172;-70
2022/09/14 04:21:06;;;;;;;;;;;;;;;12.82;100.00;98016.01;105188;1270;62127;-71
2022/09/14 04:23:32;;;;;;;;;;;;;;;12.85;100.00;98023.55;105039;1270;74530;-70
2022/09/14 04:25:58;;;;;;;;;;;;;;;12.87;100.00;98022.59;105211;1270;62145;-68
2022/09/14 04:28:24;;;;;;;;;;;;;;;12.90;100.00;98026.64;105218;1270;62169;-71
2022/09/14 04:30:53;;;;;;;;;;;;;;;12.92;100.00;98025.33;105237;1270;62210;-70
2022/09/14 04:33:20;;;;;;;;;;;;;;;12.94;100.00;98024.45;105225;1270;71210;-71
2022/09/14 04:35:54;;;;;;;;;;;;;;;12.96;100.00;98024.10;105202;1270;62175;-70
2022/09/14 04:38:20;;;;;;;;;;;;;;;12.99;100.00;98030.16;105211;1270;62159;-70
2022/09/14 04:40:46;;;;;;;;;;;;;;;13.00;100.00;98027.50;105237;1270;62175;-71
2022/09/14 04:43:12;;;;;;;;;;;;;;;13.01;100.00;98023.15;105206;1270;62276;-71
2022/09/14 04:45:37;;;;;;;;;;;;;;;13.02;100.00;98022.13;105001;1270;62393;-70
2022/09/14 04:48:04;;;;;;;;;;;;;;;13.01;100.00;98024.92;105234;1270;62182;-70
2022/09/14 04:50:31;;;;;;;;;;;;;;;13.02;100.00;98024.13;105204;1270;62175;-70
2022/09/14 04:52:57;;;;;;;;;;;;;;;13.08;100.00;98021.54;105288;1270;62234;-71
2022/09/14 04:55:23;;;;;;;;;;;;;;;13.13;100.00;98022.04;105234;1270;62266;-70
2022/09/14 04:57:49;;;;;;;;;;;;;;;13.16;100.00;98014.58;105202;1270;62172;-71
2022/09/14 05:00:15;;;;;;;;;;;;;;;13.21;100.00;98012.14;105235;1270;62203;-71
2022/09/14 05:02:42;;;;;;;;;;;;;;;13.27;100.00;98018.73;105213;1270;62242;-70
2022/09/14 05:05:09;;;;;;;;;;;;;;;13.35;100.00;98025.19;105279;1270;62174;-71
2022/09/14 05:07:35;;;;;;;;;;;;;;;13.46;100.00;98021.41;104954;1271;69385;-69
2022/09/14 05:10:02;;;;;;;;;;;;;;;13.56;100.00;98018.71;105081;1271;62065;-70
2022/09/14 05:12:28;;;;;;;;;;;;;;;13.64;100.00;98019.95;104957;1270;62089;-72
2022/09/14 05:14:54;;;;;;;;;;;;;;;13.71;100.00;98020.36;105214;1270;62134;-70
2022/09/14 05:17:20;;;;;;;;;;;;;;;13.77;100.00;98015.83;104899;1270;62203;-70
2022/09/14 05:19:47;;;;;;;;;;;;;;;13.85;100.00;98015.63;105184;1269;62003;-70
2022/09/14 05:22:14;;;;;;;;;;;;;;;13.93;100.00;98008.95;105195;1270;62083;-71
2022/09/14 05:24:40;;;;;;;;;;;;;;;14.04;100.00;98016.80;105230;1270;62273;-70
2022/09/14 05:27:07;;;;;;;;;;;;;;;14.21;100.00;98018.13;105334;1270;62188;-70
2022/09/14 05:29:32;;;;;;;;;;;;;;;14.39;100.00;98017.81;105233;1270;62142;-70
2022/09/14 05:31:59;;;;;;;;;;;;;;;14.66;100.00;98013.77;105146;1270;62081;-69
2022/09/14 05:34:25;;;;;;;;;;;;;;;14.82;100.00;98014.39;104949;1271;62611;-69
2022/09/14 05:36:50;;;;;;;;;;;;;;;15.11;100.00;98014.47;105210;1270;62135;-70
2022/09/14 05:39:16;;;;;;;;;;;;;;;15.33;100.00;98015.48;105218;1270;62185;-70
2022/09/14 05:41:43;;;;;;;;;;;;;;;15.44;100.00;98013.95;105281;1270;62174;-70
2022/09/14 05:44:09;;;;;;;;;;;;;;;15.59;100.00;98009.95;105229;1270;73425;-70
2022/09/14 05:46:35;;;;;;;;;;;;;;;15.82;100.00;98006.11;105222;1270;62277;-70
2022/09/14 05:49:02;;;;;;;;;;;;;;;16.19;100.00;97998.85;105228;1270;62127;-70
2022/09/14 05:51:28;;;;;;;;;;;;;;;16.53;100.00;97995.34;105301;1270;62186;-71
2022/09/14 05:53:55;;;;;;;;;;;;;;;16.69;100.00;97995.97;105198;1270;63485;-71
2022/09/14 05:56:22;;;;;;;;;;;;;;;16.83;100.00;97998.66;105233;1270;62199;-71
2022/09/14 05:58:48;;;;;;;;;;;;;;;16.97;100.00;97999.63;105189;1270;62150;-70
2022/09/14 06:01:19;;;;;;;;;;;;;;;17.04;100.00;98004.21;105215;1270;62374;-72
2022/09/14 06:03:46;;;;;;;;;;;;;;;17.08;100.00;98010.80;105210;1270;77486;-71
2022/09/14 06:06:13;;;;;;;;;;;;;;;17.06;100.00;98013.30;105000;1271;67555;-70
2022/09/14 06:08:39;;;;;;;;;;;;;;;17.08;100.00;98015.31;105176;1270;73684;-68
2022/09/14 06:11:06;;;;;;;;;;;;;;;17.08;100.00;98013.13;105174;1270;62135;-70
2022/09/14 06:13:33;;;;;;;;;;;;;;;17.10;100.00;98007.00;105201;1270;62095;-70
2022/09/14 06:16:06;;;;;;;;;;;;;;;17.22;100.00;98003.86;105160;1270;76128;-69
2022/09/14 06:18:33;;;;;;;;;;;;;;;17.41;100.00;98009.91;105200;1270;69521;-70
2022/09/14 06:21:00;;;;;;;;;;;;;;;17.57;100.00;98008.77;105186;1270;73470;-70
2022/09/14 06:23:27;;;;;;;;;;;;;;;17.68;100.00;98007.95;104041;1270;1591596;-70
2022/09/14 06:25:54;;;;;;;;;;;;;;;17.83;100.00;98009.35;105264;1270;62111;-70
2022/09/14 06:28:21;;;;;;;;;;;;;;;17.96;100.00;98014.84;105207;1270;76026;-70
2022/09/14 06:30:48;;;;;;;;;;;;;;;18.06;100.00;98023.44;105185;1270;62106;-71
2022/09/14 06:33:14;;;;;;;;;;;;;;;18.14;100.00;98022.19;105343;1270;73294;-70
2022/09/14 06:35:41;;;;;;;;;;;;;;;18.20;100.00;98023.25;105204;1270;62184;-71
2022/09/14 06:38:07;;;;;;;;;;;;;;;18.29;100.00;98021.92;105024;1270;62107;-70
2022/09/14 06:40:35;;;;;;;;;;;;;;;18.36;100.00;98026.52;105242;1270;75090;-70
2022/09/14 06:43:01;;;;;;;;;;;;;;;18.47;100.00;98029.02;104976;1269;62310;-70
2022/09/14 06:45:31;;;;;;;;;;;;;;;18.59;100.00;98032.98;105212;1270;62176;-70
2022/09/14 06:47:57;;;;;;;;;;;;;;;18.75;100.00;98038.35;105381;1270;62105;-71
2022/09/14 06:50:23;;;;;;;;;;;;;;;18.96;100.00;98032.41;105033;1271;62047;-71
2022/09/14 06:52:49;;;;;;;;;;;;;;;19.16;100.00;98030.93;105234;1270;62157;-70
2022/09/14 06:55:17;;;;;;;;;;;;;;;19.30;100.00;98027.62;105116;1270;62251;-70
2022/09/14 06:57:42;;;;;;;;;;;;;;;19.44;100.00;98021.23;105215;1270;62097;-70
2022/09/14 07:00:09;;;;;;;;;;;;;;;19.57;100.00;98019.20;104974;1271;62062;-70
2022/09/14 07:02:36;;;;;;;;;;;;;;;19.67;100.00;98027.52;105234;1270;62082;-70
2022/09/14 07:05:03;;;;;;;;;;;;;;;19.75;100.00;98029.98;105215;1270;62664;-70
2022/09/14 07:07:29;;;;;;;;;;;;;;;19.86;100.00;98032.81;105230;1270;70868;-70
2022/09/14 07:09:55;;;;;;;;;;;;;;;19.99;100.00;98023.95;105213;1270;62165;-71
2022/09/14 07:12:21;;;;;;;;;;;;;;;20.11;100.00;98024.20;104973;1271;62184;-71
2022/09/14 07:14:47;;;;;;;;;;;;;;;20.24;100.00;98018.55;105185;1270;62186;-70
2022/09/14 07:17:15;;;;;;;;;;;;;;;20.36;100.00;98018.50;105245;1270;62077;-70
2022/09/14 07:19:42;;;;;;;;;;;;;;;20.45;100.00;98012.29;105277;1270;62159;-70
2022/09/14 07:22:07;;;;;;;;;;;;;;;20.51;100.00;98010.48;105192;1270;62194;-70
2022/09/14 07:24:34;;;;;;;;;;;;;;;20.48;100.00;98012.16;105058;1270;62207;-70
2022/09/14 07:27:01;;;;;;;;;;;;;;;20.39;100.00;98010.84;105178;1270;63002;-70
2022/09/14 07:29:27;;;;;;;;;;;;;;;20.28;100.00;98009.50;105197;1270;62147;-71
2022/09/14 07:31:53;;;;;;;;;;;;;;;20.14;100.00;98013.09;105203;1270;62059;-71
2022/09/14 07:34:19;;;;;;;;;;;;;;;20.04;100.00;98014.50;105230;1270;62195;-70
2022/09/14 07:36:45;;;;;;;;;;;;;;;20.00;100.00;98015.99;105203;1270;62171;-69
2022/09/14 07:39:13;;;;;;;;;;;;;;;20.02;100.00;98022.30;105352;1270;62182;-71
2022/09/14 07:41:39;;;;;;;;;;;;;;;20.05;100.00;98027.14;105209;1270;62207;-72
2022/09/14 07:44:06;;;;;;;;;;;;;;;20.09;100.00;98027.21;105209;1270;62162;-70
2022/09/14 07:46:38;;;;;;;;;;;;;;;20.15;100.00;98020.52;105246;1270;62159;-71
2022/09/14 07:49:05;;;;;;;;;;;;;;;20.20;100.00;98019.52;105090;1271;62187;-70
2022/09/14 07:51:32;;;;;;;;;;;;;;;20.26;100.00;98018.42;105239;1270;62292;-70
2022/09/14 07:54:00;;;;;;;;;;;;;;;20.35;100.00;98017.36;105253;1270;75996;-70
2022/09/14 07:56:26;;;;;;;;;;;;;;;20.48;100.00;98014.11;105310;1270;69439;-68
2022/09/14 07:58:53;;;;;;;;;;;;;;;20.55;100.00;98012.81;105230;1270;62191;-69
2022/09/14 08:01:20;;;;;;;;;;;;;;;20.68;100.00;98013.13;105183;1270;62171;-69
2022/09/14 08:03:47;;;;;;;;;;;;;;;20.85;100.00;98014.27;105181;1270;62075;-69
2022/09/14 08:06:24;;;;;;;;;;;;;;;20.96;100.00;98013.72;105197;1270;74970;-71
2022/09/14 08:08:52;;;;;;;;;;;;;;;21.06;100.00;98010.81;105253;1270;70284;-70
2022/09/14 08:11:28;;;;;;;;;;;;;;;21.14;100.00;98010.02;105367;1270;75222;-70
2022/09/14 08:14:02;;;;;;;;;;;;;;;21.23;100.00;98009.60;105214;1270;62082;-69
2022/09/14 08:16:29;;;;;;;;;;;;;;;21.37;100.00;98006.22;105406;1270;61958;-70
2022/09/14 08:18:57;;;;;;;;;;;;;;;21.50;100.00;98003.16;105350;1270;76354;-71
2022/09/14 08:21:23;;;;;;;;;;;;;;;21.61;100.00;98005.85;105215;1270;70521;-70
2022/09/14 08:23:49;;;;;;;;;;;;;;;21.75;100.00;98010.40;105202;1270;62101;-72
2022/09/14 08:26:19;;;;;;;;;;;;;;;21.73;100.00;98011.19;105003;1270;62178;-70
2022/09/14 08:28:45;;;;;;;;;;;;;;;21.61;100.00;98013.58;105252;1270;62905;-71
2022/09/14 08:31:13;;;;;;;;;;;;;;;21.62;100.00;98014.41;105022;1273;76539;-71
2022/09/14 08:33:41;;;;;;;;;;;;;;;21.71;100.00;98016.19;104996;1271;69329;-71
2022/09/14 08:36:07;;;;;;;;;;;;;;;21.79;100.00;98019.83;105129;1271;74015;-71
2022/09/14 08:38:34;;;;;;;;;;;;;;;21.80;100.00;98014.96;105074;1271;62074;-70
2022/09/14 08:41:09;;;;;;;;;;;;;;;21.90;100.00;98021.95;104912;1273;62184;-70
2022/09/14 08:43:37;;;;;;;;;;;;;;;22.04;100.00;98018.11;104997;1271;77247;-70
2022/09/14 08:46:08;;;;;;;;;;;;;;;22.15;100.00;98016.84;105138;1271;69264;-71
2022/09/14 08:48:36;;;;;;;;;;;;;;;22.28;100.00;98016.64;105087;1271;74367;-71
2022/09/14 08:51:02;;;;;;;;;;;;;;;22.45;100.00;98010.08;105173;1271;62123;-71
2022/09/14 08:53:29;;;;;;;;;;;;;;;22.57;100.00;98008.31;105123;1271;62058;-71
2022/09/14 08:56:13;;;;;;;;;;;;;;;22.65;100.00;98006.45;105094;1271;62184;-71
2022/09/14 08:58:49;;;;;;;;;;;;;;;22.65;100.00;98008.23;104924;1273;67648;-71
2022/09/14 09:01:18;;;;;;;;;;;;;;;22.65;100.00;98010.05;105112;1271;74812;-71
2022/09/14 09:03:44;;;;;;;;;;;;;;;22.67;100.00;98008.01;105106;1271;62091;-71
2022/09/14 09:06:23;;;;;;;;;;;;;;;22.70;100.00;98006.81;105101;1271;62153;-71
2022/09/14 09:09:05;;;;;;;;;;;;;;;22.71;100.00;98009.57;105109;1271;75717;-70
2022/09/14 09:11:51;;;;;;;;;;;;;;;22.73;100.00;98012.23;105105;1271;69568;-71
2022/09/14 09:14:19;;;;;;;;;;;;;;;22.66;100.00;98007.97;105087;1271;73446;-70
2022/09/14 09:16:49;;;;;;;;;;;;;;;22.61;100.00;98005.83;104934;1274;62087;-70
2022/09/14 09:19:18;;;;;;;;;;;;;;;22.61;100.00;98007.83;105133;1271;62070;-70
2022/09/14 09:21:46;;;;;;;;;;;;;;;22.54;100.00;98009.32;105123;1271;77087;-70
2022/09/14 09:24:15;;;;;;;;;;;;;;;22.50;100.00;98009.89;105267;1271;69450;-71
2022/09/14 09:26:41;;;;;;;;;;;;;;;22.43;100.00;98012.27;105137;1271;73538;-70
2022/09/14 09:29:08;;;;;;;;;;;;;;;22.34;100.00;98013.02;104919;1271;62150;-70
2022/09/14 09:31:37;;;;;;;;;;;;;;;22.29;100.00;98013.34;105123;1271;61992;-70
2022/09/14 09:34:03;;;;;;;;;;;;;;;22.30;100.00;98013.71;105127;1271;76012;-71
2022/09/14 09:36:32;;;;;;;;;;;;;;;22.30;100.00;98005.83;104926;1271;62285;-71
2022/09/14 09:38:59;;;;;;;;;;;;;;;22.38;100.00;98004.94;105123;1271;72850;-70
2022/09/14 09:41:29;;;;;;;;;;;;;;;22.50;100.00;98002.48;105107;1271;62126;-70
2022/09/14 09:44:01;;;;;;;;;;;;;;;22.60;100.00;98002.31;105255;1271;62153;-71
2022/09/14 09:46:38;;;;;;;;;;;;;;;22.72;100.00;98000.09;105103;1271;77021;-70
2022/09/14 09:49:22;;;;;;;;;;;;;;;22.81;100.00;98002.70;104965;1271;69521;-71
2022/09/14 09:51:50;;;;;;;;;;;;;;;22.91;100.00;97998.05;105077;1271;73193;-70
2022/09/14 09:54:28;;;;;;;;;;;;;;;22.93;100.00;97997.47;105082;1271;62066;-71
2022/09/14 09:56:54;;;;;;;;;;;;;;;22.91;100.00;97996.46;105250;1272;62063;-71
2022/09/14 09:59:29;;;;;;;;;;;;;;;22.92;100.00;97996.55;105073;1271;62184;-71
2022/09/14 10:01:56;;;;;;;;;;;;;;;22.92;100.00;97996.83;105111;1271;69550;-70
2022/09/14 10:04:29;;;;;;;;;;;;;;;22.77;100.00;97997.67;105150;1271;73225;-70
2022/09/14 10:06:56;;;;;;;;;;;;;;;22.68;100.00;98000.33;105102;1271;62105;-71
2022/09/14 10:09:28;;;;;;;;;;;;;;;22.65;100.00;97999.81;105148;1271;62384;-71
2022/09/14 10:12:01;;;;;;;;;;;;;;;22.59;100.00;97999.09;105124;1271;76036;-70
2022/09/14 10:14:32;;;;;;;;;;;;;;;22.48;100.00;97996.88;105226;1270;69753;-70
2022/09/14 10:17:06;;;;;;;;;;;;;;;22.48;100.00;97995.58;105245;1270;73358;-70
2022/09/14 10:19:32;;;;;;;;;;;;;;;22.47;100.00;97995.71;105178;1270;62219;-70
2022/09/14 10:22:01;;;;;;;;;;;;;;;22.42;100.00;97996.85;105261;1270;64079;-72
2022/09/14 10:24:27;;;;;;;;;;;;;;;22.33;100.00;97994.15;105303;1270;76094;-70
2022/09/14 10:26:53;;;;;;;;;;;;;;;22.26;100.00;97993.11;105206;1270;62101;-70
2022/09/14 10:29:29;;;;;;;;;;;;;;;22.21;100.00;97990.19;105221;1270;62186;-70
2022/09/14 10:32:03;;;;;;;;;;;;;;;22.26;100.00;97989.85;105178;1270;62091;-70
2022/09/14 10:34:29;;;;;;;;;;;;;;;22.29;100.00;97985.36;105244;1270;62189;-70
2022/09/14 10:37:05;;;;;;;;;;;;;;;22.24;100.00;97983.71;104937;1271;62058;-70
2022/09/14 10:39:45;;;;;;;;;;;;;;;22.16;100.00;97980.69;105221;1270;70436;-70
2022/09/14 10:42:10;;;;;;;;;;;;;;;22.06;100.00;97987.38;105171;1270;73801;-70
2022/09/14 10:44:37;;;;;;;;;;;;;;;21.94;100.00;97988.80;105153;1270;62200;-70
2022/09/14 10:47:06;;;;;;;;;;;;;;;21.81;100.00;97983.60;105170;1270;62429;-72
2022/09/14 10:49:47;;;;;;;;;;;;;;;21.80;100.00;97983.41;105112;1270;63470;-70
2022/09/14 10:52:13;;;;;;;;;;;;;;;21.80;100.00;97982.42;105200;1270;69988;-70
2022/09/14 10:54:52;;;;;;;;;;;;;;;21.79;100.00;97982.90;105211;1270;62189;-71
2022/09/14 10:57:26;;;;;;;;;;;;;;;21.70;100.00;97988.89;105204;1270;62129;-69
2022/09/14 10:59:55;;;;;;;;;;;;;;;21.64;100.00;97986.10;105269;1271;62068;-69
2022/09/14 11:02:36;;;;;;;;;;;;;;;21.63;100.00;97983.91;105192;1270;77277;-71
2022/09/14 11:05:14;;;;;;;;;;;;;;;21.63;100.00;97984.99;105200;1270;69729;-71
2022/09/14 11:07:47;;;;;;;;;;;;;;;21.62;100.00;97983.84;105199;1270;74583;-71
2022/09/14 11:10:26;;;;;;;;;;;;;;;21.61;100.00;97978.23;105177;1270;62417;-69
2022/09/14 11:13:01;;;;;;;;;;;;;;;21.56;100.00;97977.94;105179;1270;62161;-70
2022/09/14 11:15:48;;;;;;;;;;;;;;;21.55;100.00;97973.02;105218;1270;77100;-71
2022/09/14 11:18:14;;;;;;;;;;;;;;;21.56;100.00;97968.23;104610;1278;70789;-71
2022/09/14 11:20:43;;;;;;;;;;;;;;;21.54;100.00;97968.87;104581;1278;62199;-70
2022/09/14 11:23:16;;;;;;;;;;;;;;;21.44;100.00;97966.44;104594;1278;62146;-70
2022/09/14 11:25:42;;;;;;;;;;;;;;;21.36;100.00;97967.02;104552;1277;62975;-70
2022/09/14 11:28:31;;;;;;;;;;;;;;;21.30;100.00;97961.80;104628;1277;62373;-71
2022/09/14 11:31:05;;;;;;;;;;;;;;;21.23;100.00;97962.19;103967;1284;69429;-71
2022/09/14 11:33:31;;;;;;;;;;;;;;;21.22;100.00;97962.56;103972;1284;73948;-71
2022/09/14 11:36:02;;;;;;;;;;;;;;;21.20;100.00;97963.27;103967;1284;62189;-70
2022/09/14 11:38:33;;;;;;;;;;;;;;;21.13;100.00;97963.58;103991;1284;62243;-70
2022/09/14 11:41:04;;;;;;;;;;;;;;;21.09;100.00;97964.98;103842;1285;77339;-70
2022/09/14 11:43:42;;;;;;;;;;;;;;;21.09;100.00;97961.03;104015;1284;70423;-70
2022/09/14 11:46:11;;;;;;;;;;;;;;;21.05;100.00;97965.96;103672;1285;71687;-70
2022/09/14 11:48:46;;;;;;;;;;;;;;;21.02;100.00;97966.96;103956;1284;62365;-70
2022/09/14 11:51:18;;;;;;;;;;;;;;;21.01;100.00;97967.09;103951;1284;62074;-71
2022/09/14 11:53:48;;;;;;;;;;;;;;;20.97;100.00;97966.47;104016;1284;76012;-70
2022/09/14 11:56:28;;;;;;;;;;;;;;;20.96;100.00;97970.08;104359;1281;69350;-70
2022/09/14 11:59:02;;;;;;;;;;;;;;;20.93;100.00;97970.44;104453;1278;74276;-71
2022/09/14 12:01:36;;;;;;;;;;;;;;;20.80;100.00;97972.10;104481;1278;62215;-70
2022/09/14 12:04:10;;;;;;;;;;;;;;;20.70;100.00;97971.19;104488;1278;62000;-70
2022/09/14 12:06:35;;;;;;;;;;;;;;;20.64;100.00;97970.43;104517;1278;76583;-70
2022/09/14 12:09:12;;;;;;;;;;;;;;;20.55;100.00;97976.73;104969;1271;62186;-70
2022/09/14 12:11:40;;;;;;;;;;;;;;;20.43;100.00;97976.98;105203;1270;74210;-71
2022/09/14 12:14:26;;;;;;;;;;;;;;;20.33;100.00;97979.83;105173;1271;62188;-69
2022/09/14 12:17:03;;;;;;;;;;;;;;;20.21;100.00;97978.44;105248;1270;62085;-70
2022/09/14 12:19:29;;;;;;;;;;;;;;;20.12;100.00;97981.49;105217;1270;76300;-70
2022/09/14 12:21:56;;;;;;;;;;;;;;;20.05;100.00;97986.18;105212;1270;63866;-70
2022/09/14 12:24:22;;;;;;;;;;;;;;;19.95;100.00;97989.33;105237;1271;74465;-70
2022/09/14 12:26:49;;;;;;;;;;;;;;;19.88;100.00;97989.49;105201;1270;62175;-70
2022/09/14 12:29:44;;;;;;;;;;;;;;;19.81;100.00;97990.55;105248;1270;62158;-70
2022/09/14 12:32:38;;;;;;;;;;;;;;;19.75;100.00;97983.40;104775;1277;77424;-71
2022/09/14 12:35:22;;;;;;;;;;;;;;;19.71;100.00;97982.96;104957;1277;69270;-71
2022/09/14 12:37:49;;;;;;;;;;;;;;;19.73;100.00;97982.83;104630;1277;74681;-71